sensor_id;sensor_type;location;lat;lon;timestamp;P1;durP1;ratioP1;P2;durP2;ratioP2
74233;SDS011;62591;55.764;37.718;2023-06-26T00:00:37;17.75;;;10.77;;
74233;SDS011;62591;55.764;37.718;2023-06-26T00:03:07;16.23;;;10.65;;
74233;SDS011;62591;55.764;37.718;2023-06-26T00:05:36;20.60;;;10.75;;
74233;SDS011;62591;55.764;37.718;2023-06-26T00:08:04;14.38;;;10.90;;
74233;SDS011;62591;55.764;37.718;2023-06-26T00:10:35;16.33;;;10.43;;
74233;SDS011;62591;55.764;37.718;2023-06-26T00:13:04;19.48;;;12.52;;
74233;SDS011;62591;55.764;37.718;2023-06-26T00:15:33;16.52;;;11.43;;
74233;SDS011;62591;55.764;37.718;2023-06-26T00:18:02;21.40;;;13.13;;
74233;SDS011;62591;55.764;37.718;2023-06-26T00:20:31;19.08;;;12.98;;
74233;SDS011;62591;55.764;37.718;2023-06-26T00:23:01;24.58;;;14.95;;
74233;SDS011;62591;55.764;37.718;2023-06-26T00:25:31;27.27;;;16.40;;
74233;SDS011;62591;55.764;37.718;2023-06-26T00:28:01;30.55;;;17.92;;
74233;SDS011;62591;55.764;37.718;2023-06-26T00:30:29;31.98;;;16.85;;
74233;SDS011;62591;55.764;37.718;2023-06-26T00:32:58;40.47;;;24.35;;
74233;SDS011;62591;55.764;37.718;2023-06-26T00:35:27;30.88;;;19.13;;
74233;SDS011;62591;55.764;37.718;2023-06-26T00:37:56;50.22;;;27.20;;
74233;SDS011;62591;55.764;37.718;2023-06-26T00:40:24;29.02;;;19.23;;
74233;SDS011;62591;55.764;37.718;2023-06-26T00:42:54;33.17;;;19.02;;
74233;SDS011;62591;55.764;37.718;2023-06-26T00:45:24;38.88;;;20.98;;
74233;SDS011;62591;55.764;37.718;2023-06-26T00:48:09;42.03;;;24.17;;
74233;SDS011;62591;55.764;37.718;2023-06-26T00:50:40;43.22;;;23.67;;
74233;SDS011;62591;55.764;37.718;2023-06-26T00:53:10;47.83;;;24.10;;
74233;SDS011;62591;55.764;37.718;2023-06-26T00:55:40;47.10;;;25.08;;
74233;SDS011;62591;55.764;37.718;2023-06-26T00:58:08;48.85;;;26.60;;
74233;SDS011;62591;55.764;37.718;2023-06-26T01:00:38;49.38;;;26.38;;
74233;SDS011;62591;55.764;37.718;2023-06-26T01:03:08;47.38;;;25.63;;
74233;SDS011;62591;55.764;37.718;2023-06-26T01:05:36;52.28;;;27.80;;
74233;SDS011;62591;55.764;37.718;2023-06-26T01:08:05;48.13;;;26.42;;
74233;SDS011;62591;55.764;37.718;2023-06-26T01:10:35;50.17;;;26.00;;
74233;SDS011;62591;55.764;37.718;2023-06-26T01:13:04;52.83;;;26.20;;
74233;SDS011;62591;55.764;37.718;2023-06-26T01:15:33;48.95;;;25.75;;
74233;SDS011;62591;55.764;37.718;2023-06-26T01:18:03;54.63;;;26.88;;
74233;SDS011;62591;55.764;37.718;2023-06-26T01:20:35;52.95;;;26.45;;
74233;SDS011;62591;55.764;37.718;2023-06-26T01:23:12;55.30;;;26.88;;
74233;SDS011;62591;55.764;37.718;2023-06-26T01:25:50;60.65;;;28.58;;
74233;SDS011;62591;55.764;37.718;2023-06-26T01:28:31;55.58;;;26.63;;
74233;SDS011;62591;55.764;37.718;2023-06-26T01:31:02;47.47;;;26.48;;
74233;SDS011;62591;55.764;37.718;2023-06-26T01:33:32;51.00;;;26.13;;
74233;SDS011;62591;55.764;37.718;2023-06-26T01:36:01;46.92;;;26.17;;
74233;SDS011;62591;55.764;37.718;2023-06-26T01:38:30;48.22;;;25.92;;
74233;SDS011;62591;55.764;37.718;2023-06-26T01:40:59;54.38;;;27.23;;
74233;SDS011;62591;55.764;37.718;2023-06-26T01:43:29;49.58;;;26.63;;
74233;SDS011;62591;55.764;37.718;2023-06-26T01:46:08;50.58;;;27.02;;
74233;SDS011;62591;55.764;37.718;2023-06-26T01:48:44;48.83;;;26.77;;
74233;SDS011;62591;55.764;37.718;2023-06-26T01:51:18;58.28;;;27.17;;
74233;SDS011;62591;55.764;37.718;2023-06-26T01:53:54;51.15;;;27.08;;
74233;SDS011;62591;55.764;37.718;2023-06-26T01:56:27;50.13;;;26.08;;
74233;SDS011;62591;55.764;37.718;2023-06-26T01:58:58;45.83;;;25.63;;
74233;SDS011;62591;55.764;37.718;2023-06-26T02:01:28;41.03;;;22.67;;
74233;SDS011;62591;55.764;37.718;2023-06-26T02:04:00;50.13;;;22.63;;
74233;SDS011;62591;55.764;37.718;2023-06-26T02:06:30;38.97;;;22.00;;
74233;SDS011;62591;55.764;37.718;2023-06-26T02:08:59;41.38;;;21.52;;
74233;SDS011;62591;55.764;37.718;2023-06-26T02:11:29;42.38;;;21.20;;
74233;SDS011;62591;55.764;37.718;2023-06-26T02:13:59;37.25;;;22.45;;
74233;SDS011;62591;55.764;37.718;2023-06-26T02:16:28;37.80;;;21.48;;
74233;SDS011;62591;55.764;37.718;2023-06-26T02:18:57;41.38;;;21.67;;
74233;SDS011;62591;55.764;37.718;2023-06-26T02:21:47;36.65;;;20.63;;
74233;SDS011;62591;55.764;37.718;2023-06-26T02:24:16;41.85;;;21.95;;
74233;SDS011;62591;55.764;37.718;2023-06-26T02:26:45;36.83;;;22.20;;
74233;SDS011;62591;55.764;37.718;2023-06-26T02:29:15;33.97;;;19.80;;
74233;SDS011;62591;55.764;37.718;2023-06-26T02:31:43;36.40;;;20.58;;
74233;SDS011;62591;55.764;37.718;2023-06-26T02:34:12;34.50;;;20.58;;
74233;SDS011;62591;55.764;37.718;2023-06-26T02:36:41;33.80;;;21.25;;
74233;SDS011;62591;55.764;37.718;2023-06-26T02:39:09;38.30;;;21.85;;
74233;SDS011;62591;55.764;37.718;2023-06-26T02:41:38;38.28;;;21.27;;
74233;SDS011;62591;55.764;37.718;2023-06-26T02:44:07;38.08;;;21.77;;
74233;SDS011;62591;55.764;37.718;2023-06-26T02:46:38;34.45;;;21.15;;
74233;SDS011;62591;55.764;37.718;2023-06-26T02:49:08;33.20;;;21.80;;
74233;SDS011;62591;55.764;37.718;2023-06-26T02:51:37;33.25;;;20.27;;
74233;SDS011;62591;55.764;37.718;2023-06-26T02:54:13;34.97;;;21.98;;
74233;SDS011;62591;55.764;37.718;2023-06-26T02:56:44;36.53;;;19.70;;
74233;SDS011;62591;55.764;37.718;2023-06-26T02:59:19;29.98;;;19.38;;
74233;SDS011;62591;55.764;37.718;2023-06-26T03:01:49;35.08;;;19.00;;
74233;SDS011;62591;55.764;37.718;2023-06-26T03:04:18;32.45;;;19.25;;
74233;SDS011;62591;55.764;37.718;2023-06-26T03:06:48;29.83;;;18.15;;
74233;SDS011;62591;55.764;37.718;2023-06-26T03:09:17;32.58;;;18.85;;
74233;SDS011;62591;55.764;37.718;2023-06-26T03:11:45;36.05;;;21.05;;
74233;SDS011;62591;55.764;37.718;2023-06-26T03:14:15;29.88;;;18.10;;
74233;SDS011;62591;55.764;37.718;2023-06-26T03:16:43;28.42;;;17.60;;
74233;SDS011;62591;55.764;37.718;2023-06-26T03:19:13;78.95;;;55.72;;
74233;SDS011;62591;55.764;37.718;2023-06-26T03:22:05;65.63;;;44.03;;
74233;SDS011;62591;55.764;37.718;2023-06-26T03:24:33;31.15;;;21.73;;
74233;SDS011;62591;55.764;37.718;2023-06-26T03:27:04;35.13;;;18.20;;
74233;SDS011;62591;55.764;37.718;2023-06-26T03:29:33;45.53;;;18.25;;
74233;SDS011;62591;55.764;37.718;2023-06-26T03:32:02;25.27;;;17.65;;
74233;SDS011;62591;55.764;37.718;2023-06-26T03:34:32;30.17;;;17.27;;
74233;SDS011;62591;55.764;37.718;2023-06-26T03:37:01;26.80;;;17.17;;
74233;SDS011;62591;55.764;37.718;2023-06-26T03:39:30;26.10;;;16.75;;
74233;SDS011;62591;55.764;37.718;2023-06-26T03:42:00;25.00;;;16.40;;
74233;SDS011;62591;55.764;37.718;2023-06-26T03:44:28;25.75;;;16.08;;
74233;SDS011;62591;55.764;37.718;2023-06-26T03:46:57;33.17;;;16.75;;
74233;SDS011;62591;55.764;37.718;2023-06-26T03:49:26;23.67;;;16.23;;
74233;SDS011;62591;55.764;37.718;2023-06-26T03:51:56;26.65;;;16.05;;
74233;SDS011;62591;55.764;37.718;2023-06-26T03:54:24;28.85;;;17.73;;
74233;SDS011;62591;55.764;37.718;2023-06-26T03:56:53;21.73;;;14.45;;
74233;SDS011;62591;55.764;37.718;2023-06-26T03:59:22;18.85;;;13.27;;
74233;SDS011;62591;55.764;37.718;2023-06-26T04:01:51;21.45;;;13.50;;
74233;SDS011;62591;55.764;37.718;2023-06-26T04:04:20;17.63;;;13.18;;
74233;SDS011;62591;55.764;37.718;2023-06-26T04:06:49;18.20;;;13.57;;
74233;SDS011;62591;55.764;37.718;2023-06-26T04:09:19;24.20;;;13.60;;
74233;SDS011;62591;55.764;37.718;2023-06-26T04:11:47;20.65;;;13.40;;
74233;SDS011;62591;55.764;37.718;2023-06-26T04:14:16;19.33;;;12.50;;
74233;SDS011;62591;55.764;37.718;2023-06-26T04:16:45;19.50;;;12.73;;
74233;SDS011;62591;55.764;37.718;2023-06-26T04:19:14;18.88;;;11.73;;
74233;SDS011;62591;55.764;37.718;2023-06-26T04:21:42;20.70;;;12.77;;
74233;SDS011;62591;55.764;37.718;2023-06-26T04:24:11;17.02;;;11.45;;
74233;SDS011;62591;55.764;37.718;2023-06-26T04:26:43;18.70;;;11.77;;
74233;SDS011;62591;55.764;37.718;2023-06-26T04:29:12;17.02;;;11.25;;
74233;SDS011;62591;55.764;37.718;2023-06-26T04:31:41;15.35;;;11.55;;
74233;SDS011;62591;55.764;37.718;2023-06-26T04:34:13;17.90;;;12.88;;
74233;SDS011;62591;55.764;37.718;2023-06-26T04:36:42;17.38;;;12.18;;
74233;SDS011;62591;55.764;37.718;2023-06-26T04:39:14;19.77;;;11.57;;
74233;SDS011;62591;55.764;37.718;2023-06-26T04:41:45;17.08;;;11.68;;
74233;SDS011;62591;55.764;37.718;2023-06-26T04:44:15;15.40;;;11.25;;
74233;SDS011;62591;55.764;37.718;2023-06-26T04:46:44;14.65;;;10.88;;
74233;SDS011;62591;55.764;37.718;2023-06-26T04:49:13;17.55;;;11.20;;
74233;SDS011;62591;55.764;37.718;2023-06-26T04:51:44;15.38;;;10.85;;
74233;SDS011;62591;55.764;37.718;2023-06-26T04:54:13;14.77;;;11.07;;
74233;SDS011;62591;55.764;37.718;2023-06-26T04:56:41;14.05;;;9.82;;
74233;SDS011;62591;55.764;37.718;2023-06-26T04:59:15;14.40;;;10.05;;
74233;SDS011;62591;55.764;37.718;2023-06-26T05:01:43;12.45;;;9.43;;
74233;SDS011;62591;55.764;37.718;2023-06-26T05:04:15;13.93;;;9.70;;
74233;SDS011;62591;55.764;37.718;2023-06-26T05:06:44;16.05;;;9.80;;
74233;SDS011;62591;55.764;37.718;2023-06-26T05:09:13;12.77;;;9.73;;
74233;SDS011;62591;55.764;37.718;2023-06-26T05:11:43;13.50;;;9.38;;
74233;SDS011;62591;55.764;37.718;2023-06-26T05:14:11;12.90;;;9.40;;
74233;SDS011;62591;55.764;37.718;2023-06-26T05:16:41;15.50;;;9.45;;
74233;SDS011;62591;55.764;37.718;2023-06-26T05:19:10;14.82;;;9.68;;
74233;SDS011;62591;55.764;37.718;2023-06-26T05:21:39;13.50;;;9.18;;
74233;SDS011;62591;55.764;37.718;2023-06-26T05:24:08;13.57;;;8.30;;
74233;SDS011;62591;55.764;37.718;2023-06-26T05:26:40;19.73;;;7.38;;
74233;SDS011;62591;55.764;37.718;2023-06-26T05:29:09;11.95;;;7.13;;
74233;SDS011;62591;55.764;37.718;2023-06-26T05:31:40;12.00;;;8.32;;
74233;SDS011;62591;55.764;37.718;2023-06-26T05:34:13;31.98;;;26.05;;
74233;SDS011;62591;55.764;37.718;2023-06-26T05:36:43;14.55;;;9.43;;
74233;SDS011;62591;55.764;37.718;2023-06-26T05:39:12;8.63;;;6.80;;
74233;SDS011;62591;55.764;37.718;2023-06-26T05:41:42;9.98;;;6.95;;
74233;SDS011;62591;55.764;37.718;2023-06-26T05:44:11;10.05;;;7.07;;
74233;SDS011;62591;55.764;37.718;2023-06-26T05:46:42;9.55;;;6.50;;
74233;SDS011;62591;55.764;37.718;2023-06-26T05:49:11;7.32;;;5.50;;
74233;SDS011;62591;55.764;37.718;2023-06-26T05:51:41;8.57;;;6.07;;
74233;SDS011;62591;55.764;37.718;2023-06-26T05:54:10;7.57;;;5.65;;
74233;SDS011;62591;55.764;37.718;2023-06-26T05:56:40;8.82;;;5.90;;
74233;SDS011;62591;55.764;37.718;2023-06-26T05:59:09;9.88;;;5.53;;
74233;SDS011;62591;55.764;37.718;2023-06-26T06:01:41;8.65;;;5.90;;
74233;SDS011;62591;55.764;37.718;2023-06-26T06:04:10;7.55;;;4.90;;
74233;SDS011;62591;55.764;37.718;2023-06-26T06:06:38;8.60;;;5.78;;
74233;SDS011;62591;55.764;37.718;2023-06-26T06:09:07;8.85;;;6.18;;
74233;SDS011;62591;55.764;37.718;2023-06-26T06:11:36;7.60;;;5.45;;
74233;SDS011;62591;55.764;37.718;2023-06-26T06:14:04;6.85;;;5.10;;
74233;SDS011;62591;55.764;37.718;2023-06-26T06:16:34;7.32;;;5.30;;
74233;SDS011;62591;55.764;37.718;2023-06-26T06:19:04;6.85;;;4.88;;
74233;SDS011;62591;55.764;37.718;2023-06-26T06:21:34;7.28;;;5.43;;
74233;SDS011;62591;55.764;37.718;2023-06-26T06:24:03;8.13;;;5.00;;
74233;SDS011;62591;55.764;37.718;2023-06-26T06:26:33;7.72;;;5.25;;
74233;SDS011;62591;55.764;37.718;2023-06-26T06:29:01;8.48;;;5.43;;
74233;SDS011;62591;55.764;37.718;2023-06-26T06:31:30;7.35;;;5.10;;
74233;SDS011;62591;55.764;37.718;2023-06-26T06:34:00;6.95;;;4.93;;
74233;SDS011;62591;55.764;37.718;2023-06-26T06:36:32;9.75;;;5.40;;
74233;SDS011;62591;55.764;37.718;2023-06-26T06:39:02;6.82;;;5.18;;
74233;SDS011;62591;55.764;37.718;2023-06-26T06:41:31;6.45;;;4.40;;
74233;SDS011;62591;55.764;37.718;2023-06-26T06:44:05;8.98;;;4.95;;
74233;SDS011;62591;55.764;37.718;2023-06-26T06:46:34;8.23;;;4.95;;
74233;SDS011;62591;55.764;37.718;2023-06-26T06:49:02;6.18;;;4.75;;
74233;SDS011;62591;55.764;37.718;2023-06-26T06:51:33;6.93;;;4.53;;
74233;SDS011;62591;55.764;37.718;2023-06-26T06:54:04;6.40;;;4.43;;
74233;SDS011;62591;55.764;37.718;2023-06-26T06:56:32;5.93;;;4.80;;
74233;SDS011;62591;55.764;37.718;2023-06-26T06:59:01;7.30;;;4.75;;
74233;SDS011;62591;55.764;37.718;2023-06-26T07:01:30;5.95;;;4.50;;
74233;SDS011;62591;55.764;37.718;2023-06-26T07:03:58;5.95;;;4.93;;
74233;SDS011;62591;55.764;37.718;2023-06-26T07:06:27;5.70;;;4.82;;
74233;SDS011;62591;55.764;37.718;2023-06-26T07:08:57;6.97;;;4.80;;
74233;SDS011;62591;55.764;37.718;2023-06-26T07:11:26;6.40;;;4.70;;
74233;SDS011;62591;55.764;37.718;2023-06-26T07:13:55;6.45;;;4.68;;
74233;SDS011;62591;55.764;37.718;2023-06-26T07:16:23;5.97;;;4.60;;
74233;SDS011;62591;55.764;37.718;2023-06-26T07:18:52;6.22;;;4.78;;
74233;SDS011;62591;55.764;37.718;2023-06-26T07:21:21;7.60;;;4.90;;
74233;SDS011;62591;55.764;37.718;2023-06-26T07:23:52;7.60;;;5.22;;
74233;SDS011;62591;55.764;37.718;2023-06-26T07:26:22;8.27;;;4.75;;
74233;SDS011;62591;55.764;37.718;2023-06-26T07:28:55;9.30;;;5.03;;
74233;SDS011;62591;55.764;37.718;2023-06-26T07:31:24;7.32;;;4.65;;
74233;SDS011;62591;55.764;37.718;2023-06-26T07:33:53;10.20;;;5.15;;
74233;SDS011;62591;55.764;37.718;2023-06-26T07:36:21;8.88;;;5.35;;
74233;SDS011;62591;55.764;37.718;2023-06-26T07:38:50;7.53;;;4.90;;
74233;SDS011;62591;55.764;37.718;2023-06-26T07:41:19;7.88;;;5.80;;
74233;SDS011;62591;55.764;37.718;2023-06-26T07:43:49;7.43;;;5.00;;
74233;SDS011;62591;55.764;37.718;2023-06-26T07:46:18;6.05;;;4.70;;
74233;SDS011;62591;55.764;37.718;2023-06-26T07:48:49;9.38;;;4.95;;
74233;SDS011;62591;55.764;37.718;2023-06-26T07:52:46;7.10;;;5.03;;
74233;SDS011;62591;55.764;37.718;2023-06-26T07:55:15;5.88;;;4.80;;
74233;SDS011;62591;55.764;37.718;2023-06-26T07:57:45;6.30;;;4.90;;
74233;SDS011;62591;55.764;37.718;2023-06-26T08:00:15;10.18;;;5.57;;
74233;SDS011;62591;55.764;37.718;2023-06-26T08:02:45;9.80;;;5.47;;
74233;SDS011;62591;55.764;37.718;2023-06-26T08:05:14;7.97;;;5.63;;
74233;SDS011;62591;55.764;37.718;2023-06-26T08:07:43;7.80;;;5.25;;
74233;SDS011;62591;55.764;37.718;2023-06-26T08:10:12;7.15;;;4.90;;
74233;SDS011;62591;55.764;37.718;2023-06-26T08:12:42;8.65;;;5.50;;
74233;SDS011;62591;55.764;37.718;2023-06-26T08:15:15;14.80;;;5.57;;
74233;SDS011;62591;55.764;37.718;2023-06-26T08:17:44;8.30;;;5.38;;
74233;SDS011;62591;55.764;37.718;2023-06-26T08:20:13;8.93;;;5.80;;
74233;SDS011;62591;55.764;37.718;2023-06-26T08:22:42;7.40;;;5.63;;
74233;SDS011;62591;55.764;37.718;2023-06-26T08:25:11;13.80;;;9.10;;
74233;SDS011;62591;55.764;37.718;2023-06-26T08:27:40;9.60;;;5.57;;
74233;SDS011;62591;55.764;37.718;2023-06-26T08:30:09;8.32;;;5.50;;
74233;SDS011;62591;55.764;37.718;2023-06-26T08:32:41;11.95;;;6.35;;
74233;SDS011;62591;55.764;37.718;2023-06-26T08:35:10;8.30;;;5.57;;
74233;SDS011;62591;55.764;37.718;2023-06-26T08:37:39;8.10;;;5.60;;
74233;SDS011;62591;55.764;37.718;2023-06-26T08:40:08;8.30;;;5.90;;
74233;SDS011;62591;55.764;37.718;2023-06-26T08:42:37;11.55;;;5.78;;
74233;SDS011;62591;55.764;37.718;2023-06-26T08:45:06;11.32;;;5.85;;
74233;SDS011;62591;55.764;37.718;2023-06-26T08:47:35;7.97;;;5.82;;
74233;SDS011;62591;55.764;37.718;2023-06-26T08:50:08;8.68;;;6.07;;
74233;SDS011;62591;55.764;37.718;2023-06-26T08:52:42;7.55;;;5.60;;
74233;SDS011;62591;55.764;37.718;2023-06-26T08:55:14;5.82;;;4.68;;
74233;SDS011;62591;55.764;37.718;2023-06-26T08:57:45;7.10;;;5.07;;
74233;SDS011;62591;55.764;37.718;2023-06-26T09:00:14;6.88;;;5.05;;
74233;SDS011;62591;55.764;37.718;2023-06-26T09:02:44;9.57;;;5.35;;
74233;SDS011;62591;55.764;37.718;2023-06-26T09:05:15;7.75;;;5.72;;
74233;SDS011;62591;55.764;37.718;2023-06-26T09:07:44;8.65;;;5.22;;
74233;SDS011;62591;55.764;37.718;2023-06-26T09:10:15;8.80;;;5.43;;
74233;SDS011;62591;55.764;37.718;2023-06-26T09:12:45;9.70;;;5.85;;
74233;SDS011;62591;55.764;37.718;2023-06-26T09:15:15;5.85;;;5.05;;
74233;SDS011;62591;55.764;37.718;2023-06-26T09:17:44;7.45;;;5.50;;
74233;SDS011;62591;55.764;37.718;2023-06-26T09:20:15;8.05;;;5.43;;
74233;SDS011;62591;55.764;37.718;2023-06-26T09:22:47;7.82;;;5.20;;
74233;SDS011;62591;55.764;37.718;2023-06-26T09:25:17;10.25;;;5.60;;
74233;SDS011;62591;55.764;37.718;2023-06-26T09:27:49;6.55;;;5.40;;
74233;SDS011;62591;55.764;37.718;2023-06-26T09:30:19;10.50;;;5.68;;
74233;SDS011;62591;55.764;37.718;2023-06-26T09:32:48;9.02;;;5.97;;
74233;SDS011;62591;55.764;37.718;2023-06-26T09:35:19;9.02;;;5.40;;
74233;SDS011;62591;55.764;37.718;2023-06-26T09:37:48;9.60;;;5.47;;
74233;SDS011;62591;55.764;37.718;2023-06-26T09:40:17;8.57;;;5.45;;
74233;SDS011;62591;55.764;37.718;2023-06-26T09:42:46;10.52;;;6.72;;
74233;SDS011;62591;55.764;37.718;2023-06-26T09:45:19;6.18;;;5.00;;
74233;SDS011;62591;55.764;37.718;2023-06-26T09:47:48;7.72;;;5.38;;
74233;SDS011;62591;55.764;37.718;2023-06-26T09:50:24;7.30;;;5.00;;
74233;SDS011;62591;55.764;37.718;2023-06-26T09:52:54;6.40;;;5.13;;
74233;SDS011;62591;55.764;37.718;2023-06-26T09:55:25;8.38;;;5.22;;
74233;SDS011;62591;55.764;37.718;2023-06-26T09:57:55;8.32;;;5.50;;
74233;SDS011;62591;55.764;37.718;2023-06-26T10:00:30;7.22;;;5.60;;
74233;SDS011;62591;55.764;37.718;2023-06-26T10:02:59;9.40;;;5.50;;
74233;SDS011;62591;55.764;37.718;2023-06-26T10:05:30;8.32;;;5.70;;
74233;SDS011;62591;55.764;37.718;2023-06-26T10:07:59;7.88;;;6.20;;
74233;SDS011;62591;55.764;37.718;2023-06-26T10:10:29;8.55;;;5.63;;
74233;SDS011;62591;55.764;37.718;2023-06-26T10:12:59;9.48;;;5.68;;
74233;SDS011;62591;55.764;37.718;2023-06-26T10:15:32;10.75;;;6.07;;
74233;SDS011;62591;55.764;37.718;2023-06-26T10:18:03;10.50;;;6.15;;
74233;SDS011;62591;55.764;37.718;2023-06-26T10:20:35;8.30;;;5.82;;
74233;SDS011;62591;55.764;37.718;2023-06-26T10:23:06;61.58;;;35.03;;
74233;SDS011;62591;55.764;37.718;2023-06-26T10:25:37;19.80;;;10.73;;
74233;SDS011;62591;55.764;37.718;2023-06-26T10:28:10;8.23;;;5.35;;
74233;SDS011;62591;55.764;37.718;2023-06-26T10:30:40;11.95;;;8.55;;
74233;SDS011;62591;55.764;37.718;2023-06-26T10:33:12;9.30;;;5.63;;
74233;SDS011;62591;55.764;37.718;2023-06-26T10:35:44;10.77;;;5.72;;
74233;SDS011;62591;55.764;37.718;2023-06-26T10:38:13;7.65;;;5.65;;
74233;SDS011;62591;55.764;37.718;2023-06-26T10:40:42;7.65;;;5.13;;
74233;SDS011;62591;55.764;37.718;2023-06-26T10:43:12;7.95;;;5.53;;
74233;SDS011;62591;55.764;37.718;2023-06-26T10:45:43;9.25;;;5.40;;
74233;SDS011;62591;55.764;37.718;2023-06-26T10:48:14;8.45;;;5.15;;
74233;SDS011;62591;55.764;37.718;2023-06-26T10:50:44;8.07;;;5.63;;
74233;SDS011;62591;55.764;37.718;2023-06-26T10:53:15;17.85;;;10.27;;
74233;SDS011;62591;55.764;37.718;2023-06-26T10:55:55;8.43;;;4.95;;
74233;SDS011;62591;55.764;37.718;2023-06-26T10:58:32;9.85;;;5.93;;
74233;SDS011;62591;55.764;37.718;2023-06-26T11:01:19;6.40;;;5.07;;
74233;SDS011;62591;55.764;37.718;2023-06-26T11:04:00;8.60;;;5.20;;
74233;SDS011;62591;55.764;37.718;2023-06-26T11:06:34;7.72;;;6.05;;
74233;SDS011;62591;55.764;37.718;2023-06-26T11:09:09;10.38;;;5.90;;
74233;SDS011;62591;55.764;37.718;2023-06-26T11:11:55;9.00;;;5.68;;
74233;SDS011;62591;55.764;37.718;2023-06-26T11:14:29;6.82;;;5.18;;
74233;SDS011;62591;55.764;37.718;2023-06-26T11:17:02;6.78;;;5.35;;
74233;SDS011;62591;55.764;37.718;2023-06-26T11:19:31;8.93;;;5.90;;
74233;SDS011;62591;55.764;37.718;2023-06-26T11:22:05;8.30;;;6.07;;
74233;SDS011;62591;55.764;37.718;2023-06-26T11:24:34;7.32;;;5.75;;
74233;SDS011;62591;55.764;37.718;2023-06-26T11:27:04;9.13;;;5.75;;
74233;SDS011;62591;55.764;37.718;2023-06-26T11:29:33;11.43;;;5.28;;
74233;SDS011;62591;55.764;37.718;2023-06-26T11:32:03;8.02;;;6.95;;
74233;SDS011;62591;55.764;37.718;2023-06-26T11:34:35;8.05;;;5.75;;
74233;SDS011;62591;55.764;37.718;2023-06-26T11:37:06;9.50;;;7.15;;
74233;SDS011;62591;55.764;37.718;2023-06-26T11:39:36;6.28;;;4.88;;
74233;SDS011;62591;55.764;37.718;2023-06-26T11:42:06;6.15;;;4.63;;
74233;SDS011;62591;55.764;37.718;2023-06-26T11:44:39;7.13;;;5.30;;
74233;SDS011;62591;55.764;37.718;2023-06-26T11:47:13;7.22;;;5.32;;
74233;SDS011;62591;55.764;37.718;2023-06-26T11:52:13;7.85;;;5.35;;
74233;SDS011;62591;55.764;37.718;2023-06-26T11:54:43;6.97;;;5.00;;
74233;SDS011;62591;55.764;37.718;2023-06-26T11:57:15;8.20;;;5.32;;
74233;SDS011;62591;55.764;37.718;2023-06-26T11:59:49;6.57;;;5.30;;
74233;SDS011;62591;55.764;37.718;2023-06-26T12:02:18;7.85;;;5.00;;
74233;SDS011;62591;55.764;37.718;2023-06-26T12:04:51;6.90;;;4.47;;
74233;SDS011;62591;55.764;37.718;2023-06-26T12:07:21;6.15;;;4.50;;
74233;SDS011;62591;55.764;37.718;2023-06-26T12:09:50;5.85;;;4.07;;
74233;SDS011;62591;55.764;37.718;2023-06-26T12:12:19;7.30;;;4.60;;
74233;SDS011;62591;55.764;37.718;2023-06-26T12:14:47;9.02;;;5.07;;
74233;SDS011;62591;55.764;37.718;2023-06-26T12:17:16;8.25;;;5.20;;
74233;SDS011;62591;55.764;37.718;2023-06-26T12:19:46;8.93;;;4.97;;
74233;SDS011;62591;55.764;37.718;2023-06-26T12:22:17;6.85;;;4.72;;
74233;SDS011;62591;55.764;37.718;2023-06-26T12:24:48;6.93;;;5.28;;
74233;SDS011;62591;55.764;37.718;2023-06-26T12:27:18;11.98;;;5.85;;
74233;SDS011;62591;55.764;37.718;2023-06-26T12:29:49;7.93;;;4.95;;
74233;SDS011;62591;55.764;37.718;2023-06-26T12:32:21;7.43;;;5.03;;
74233;SDS011;62591;55.764;37.718;2023-06-26T12:34:52;8.52;;;5.15;;
74233;SDS011;62591;55.764;37.718;2023-06-26T12:37:21;7.38;;;5.38;;
74233;SDS011;62591;55.764;37.718;2023-06-26T12:39:53;7.43;;;5.10;;
74233;SDS011;62591;55.764;37.718;2023-06-26T12:42:24;12.02;;;7.82;;
74233;SDS011;62591;55.764;37.718;2023-06-26T12:44:54;14.60;;;8.45;;
74233;SDS011;62591;55.764;37.718;2023-06-26T12:47:24;10.63;;;5.50;;
74233;SDS011;62591;55.764;37.718;2023-06-26T12:49:54;7.85;;;5.18;;
74233;SDS011;62591;55.764;37.718;2023-06-26T12:52:25;30.02;;;15.10;;
74233;SDS011;62591;55.764;37.718;2023-06-26T12:54:55;9.43;;;6.18;;
74233;SDS011;62591;55.764;37.718;2023-06-26T12:57:24;7.88;;;5.55;;
74233;SDS011;62591;55.764;37.718;2023-06-26T12:59:53;17.52;;;6.93;;
74233;SDS011;62591;55.764;37.718;2023-06-26T13:02:22;8.90;;;5.25;;
74233;SDS011;62591;55.764;37.718;2023-06-26T13:04:50;10.40;;;6.60;;
74233;SDS011;62591;55.764;37.718;2023-06-26T13:07:19;12.75;;;7.10;;
74233;SDS011;62591;55.764;37.718;2023-06-26T13:09:48;10.80;;;5.05;;
74233;SDS011;62591;55.764;37.718;2023-06-26T13:12:18;8.25;;;5.20;;
74233;SDS011;62591;55.764;37.718;2023-06-26T13:14:46;9.02;;;5.05;;
74233;SDS011;62591;55.764;37.718;2023-06-26T13:17:15;8.77;;;5.30;;
74233;SDS011;62591;55.764;37.718;2023-06-26T13:19:44;8.32;;;5.35;;
74233;SDS011;62591;55.764;37.718;2023-06-26T13:22:12;7.30;;;4.70;;
74233;SDS011;62591;55.764;37.718;2023-06-26T13:24:41;6.47;;;4.63;;
74233;SDS011;62591;55.764;37.718;2023-06-26T13:27:09;7.32;;;4.93;;
74233;SDS011;62591;55.764;37.718;2023-06-26T13:29:39;8.07;;;4.55;;
74233;SDS011;62591;55.764;37.718;2023-06-26T13:32:08;7.03;;;4.93;;
74233;SDS011;62591;55.764;37.718;2023-06-26T13:34:37;7.78;;;4.93;;
74233;SDS011;62591;55.764;37.718;2023-06-26T13:37:05;12.57;;;8.38;;
74233;SDS011;62591;55.764;37.718;2023-06-26T13:39:34;7.50;;;4.68;;
74233;SDS011;62591;55.764;37.718;2023-06-26T13:42:02;6.32;;;4.53;;
74233;SDS011;62591;55.764;37.718;2023-06-26T13:44:32;6.43;;;4.72;;
74233;SDS011;62591;55.764;37.718;2023-06-26T13:47:19;7.22;;;4.90;;
74233;SDS011;62591;55.764;37.718;2023-06-26T13:49:48;10.98;;;4.60;;
74233;SDS011;62591;55.764;37.718;2023-06-26T13:52:16;6.38;;;5.00;;
74233;SDS011;62591;55.764;37.718;2023-06-26T13:54:45;8.27;;;5.03;;
74233;SDS011;62591;55.764;37.718;2023-06-26T13:57:13;10.18;;;5.10;;
74233;SDS011;62591;55.764;37.718;2023-06-26T13:59:42;8.43;;;4.55;;
74233;SDS011;62591;55.764;37.718;2023-06-26T14:02:14;6.95;;;4.60;;
74233;SDS011;62591;55.764;37.718;2023-06-26T14:04:44;8.85;;;5.20;;
74233;SDS011;62591;55.764;37.718;2023-06-26T14:07:13;6.97;;;5.53;;
74233;SDS011;62591;55.764;37.718;2023-06-26T14:09:42;8.57;;;6.75;;
74233;SDS011;62591;55.764;37.718;2023-06-26T14:12:11;7.50;;;5.57;;
74233;SDS011;62591;55.764;37.718;2023-06-26T14:14:39;6.40;;;4.75;;
74233;SDS011;62591;55.764;37.718;2023-06-26T14:17:08;7.70;;;5.15;;
74233;SDS011;62591;55.764;37.718;2023-06-26T14:19:45;9.27;;;5.18;;
74233;SDS011;62591;55.764;37.718;2023-06-26T14:22:13;7.03;;;4.20;;
74233;SDS011;62591;55.764;37.718;2023-06-26T14:24:42;8.57;;;5.28;;
74233;SDS011;62591;55.764;37.718;2023-06-26T14:27:10;8.23;;;5.43;;
74233;SDS011;62591;55.764;37.718;2023-06-26T14:29:39;7.88;;;4.72;;
74233;SDS011;62591;55.764;37.718;2023-06-26T14:32:08;7.47;;;4.82;;
74233;SDS011;62591;55.764;37.718;2023-06-26T14:34:37;7.43;;;5.30;;
74233;SDS011;62591;55.764;37.718;2023-06-26T14:37:07;8.93;;;5.10;;
74233;SDS011;62591;55.764;37.718;2023-06-26T14:39:35;7.70;;;5.10;;
74233;SDS011;62591;55.764;37.718;2023-06-26T14:42:06;8.13;;;5.10;;
74233;SDS011;62591;55.764;37.718;2023-06-26T14:44:35;7.05;;;5.03;;